sensor_id;sensor_type;location;lat;lon;timestamp;pressure;altitude;pressure_sealevel;temperature;humidity
11830;BME280;5972;42.134;24.718;2023-02-28T00:00:38;100183.31;;;11.65;100.00
11830;BME280;5972;42.134;24.718;2023-02-28T00:03:05;100184.91;;;11.66;100.00
11830;BME280;5972;42.134;24.718;2023-02-28T00:05:32;100180.59;;;11.65;100.00
11830;BME280;5972;42.134;24.718;2023-02-28T00:08:01;100188.06;;;11.68;100.00
11830;BME280;5972;42.134;24.718;2023-02-28T00:10:29;100190.09;;;11.72;100.00
11830;BME280;5972;42.134;24.718;2023-02-28T00:13:01;100187.22;;;11.77;100.00
11830;BME280;5972;42.134;24.718;2023-02-28T00:15:28;100195.03;;;11.78;100.00
11830;BME280;5972;42.134;24.718;2023-02-28T00:17:55;100190.09;;;11.72;100.00
11830;BME280;5972;42.134;24.718;2023-02-28T00:20:22;100189.28;;;11.80;100.00
11830;BME280;5972;42.134;24.718;2023-02-28T00:22:52;100188.50;;;11.71;100.00
11830;BME280;5972;42.134;24.718;2023-02-28T00:25:23;100186.28;;;11.73;100.00
11830;BME280;5972;42.134;24.718;2023-02-28T00:27:51;100186.78;;;11.75;100.00
11830;BME280;5972;42.134;24.718;2023-02-28T00:30:20;100187.94;;;11.86;100.00
11830;BME280;5972;42.134;24.718;2023-02-28T00:32:47;100187.72;;;11.91;100.00
11830;BME280;5972;42.134;24.718;2023-02-28T00:35:14;100187.78;;;11.82;100.00
11830;BME280;5972;42.134;24.718;2023-02-28T00:37:41;100172.22;;;11.79;100.00
11830;BME280;5972;42.134;24.718;2023-02-28T00:40:09;100172.72;;;11.73;100.00
11830;BME280;5972;42.134;24.718;2023-02-28T00:42:39;100179.81;;;11.65;100.00
11830;BME280;5972;42.134;24.718;2023-02-28T00:45:07;100186.31;;;11.52;100.00
11830;BME280;5972;42.134;24.718;2023-02-28T00:47:34;100190.47;;;11.49;100.00
11830;BME280;5972;42.134;24.718;2023-02-28T00:50:02;100184.25;;;11.49;100.00
11830;BME280;5972;42.134;24.718;2023-02-28T00:52:29;100181.69;;;11.52;100.00
11830;BME280;5972;42.134;24.718;2023-02-28T00:54:56;100170.28;;;11.47;100.00
11830;BME280;5972;42.134;24.718;2023-02-28T00:57:23;100185.31;;;11.56;100.00
11830;BME280;5972;42.134;24.718;2023-02-28T00:59:51;100186.75;;;11.54;100.00
11830;BME280;5972;42.134;24.718;2023-02-28T01:02:20;100180.91;;;11.52;100.00
11830;BME280;5972;42.134;24.718;2023-02-28T01:04:47;100192.44;;;11.61;100.00
11830;BME280;5972;42.134;24.718;2023-02-28T01:07:14;100196.06;;;11.65;100.00
11830;BME280;5972;42.134;24.718;2023-02-28T01:09:41;100195.09;;;11.70;100.00
11830;BME280;5972;42.134;24.718;2023-02-28T01:12:08;100194.41;;;11.73;100.00
11830;BME280;5972;42.134;24.718;2023-02-28T01:14:35;100192.63;;;11.77;100.00
11830;BME280;5972;42.134;24.718;2023-02-28T01:17:03;100188.88;;;11.69;100.00
11830;BME280;5972;42.134;24.718;2023-02-28T01:19:30;100215.25;;;11.81;100.00
11830;BME280;5972;42.134;24.718;2023-02-28T01:22:00;100218.09;;;11.84;100.00
11830;BME280;5972;42.134;24.718;2023-02-28T01:24:27;100215.47;;;11.88;100.00
11830;BME280;5972;42.134;24.718;2023-02-28T01:26:54;100206.53;;;11.75;100.00
11830;BME280;5972;42.134;24.718;2023-02-28T01:29:21;100213.53;;;11.76;100.00
11830;BME280;5972;42.134;24.718;2023-02-28T01:31:48;100206.25;;;11.68;100.00
11830;BME280;5972;42.134;24.718;2023-02-28T01:34:17;100207.13;;;11.60;100.00
11830;BME280;5972;42.134;24.718;2023-02-28T01:36:45;100214.59;;;11.63;100.00
11830;BME280;5972;42.134;24.718;2023-02-28T01:39:12;100232.66;;;11.59;100.00
11830;BME280;5972;42.134;24.718;2023-02-28T01:41:39;100240.31;;;11.57;100.00
11830;BME280;5972;42.134;24.718;2023-02-28T01:44:53;100236.03;;;11.56;100.00
11830;BME280;5972;42.134;24.718;2023-02-28T01:46:54;100214.81;;;11.37;100.00
11830;BME280;5972;42.134;24.718;2023-02-28T01:49:22;100248.78;;;11.55;100.00
11830;BME280;5972;42.134;24.718;2023-02-28T01:51:51;100255.91;;;11.60;100.00
11830;BME280;5972;42.134;24.718;2023-02-28T01:54:24;100255.66;;;11.53;100.00
11830;BME280;5972;42.134;24.718;2023-02-28T01:56:56;100254.09;;;11.31;100.00
11830;BME280;5972;42.134;24.718;2023-02-28T01:59:27;100252.22;;;11.23;100.00
11830;BME280;5972;42.134;24.718;2023-02-28T02:01:56;100263.66;;;11.29;100.00
11830;BME280;5972;42.134;24.718;2023-02-28T02:04:27;100275.69;;;11.19;100.00
11830;BME280;5972;42.134;24.718;2023-02-28T02:06:59;100269.97;;;10.91;100.00
11830;BME280;5972;42.134;24.718;2023-02-28T02:09:26;100287.00;;;10.92;100.00
11830;BME280;5972;42.134;24.718;2023-02-28T02:11:55;100289.94;;;10.78;100.00
11830;BME280;5972;42.134;24.718;2023-02-28T02:14:33;100277.75;;;10.63;100.00
11830;BME280;5972;42.134;24.718;2023-02-28T02:17:14;100277.47;;;10.56;100.00
11830;BME280;5972;42.134;24.718;2023-02-28T02:23:01;100273.28;;;10.12;100.00
11830;BME280;5972;42.134;24.718;2023-02-28T02:25:33;100279.97;;;10.23;100.00
11830;BME280;5972;42.134;24.718;2023-02-28T02:31:50;100288.88;;;10.24;100.00
11830;BME280;5972;42.134;24.718;2023-02-28T02:34:42;100290.13;;;10.26;100.00
11830;BME280;5972;42.134;24.718;2023-02-28T02:37:17;100296.81;;;10.20;100.00
11830;BME280;5972;42.134;24.718;2023-02-28T02:42:23;100301.44;;;10.11;100.00
11830;BME280;5972;42.134;24.718;2023-02-28T02:44:55;100298.72;;;10.11;100.00
11830;BME280;5972;42.134;24.718;2023-02-28T02:47:27;100307.19;;;10.01;100.00
11830;BME280;5972;42.134;24.718;2023-02-28T02:49:59;100305.09;;;10.07;100.00
11830;BME280;5972;42.134;24.718;2023-02-28T02:52:33;100307.16;;;10.10;100.00
11830;BME280;5972;42.134;24.718;2023-02-28T02:55:02;100313.66;;;10.09;100.00
11830;BME280;5972;42.134;24.718;2023-02-28T02:57:34;100323.88;;;10.12;100.00
11830;BME280;5972;42.134;24.718;2023-02-28T03:00:04;100330.88;;;10.13;100.00
11830;BME280;5972;42.134;24.718;2023-02-28T03:02:35;100335.00;;;10.10;100.00
11830;BME280;5972;42.134;24.718;2023-02-28T03:05:08;100335.16;;;10.14;100.00
11830;BME280;5972;42.134;24.718;2023-02-28T03:07:38;100351.56;;;10.17;100.00
11830;BME280;5972;42.134;24.718;2023-02-28T03:10:27;100354.75;;;10.19;100.00
11830;BME280;5972;42.134;24.718;2023-02-28T03:13:03;100346.59;;;10.11;100.00
11830;BME280;5972;42.134;24.718;2023-02-28T03:15:43;100348.50;;;10.10;100.00
11830;BME280;5972;42.134;24.718;2023-02-28T03:18:22;100358.38;;;10.15;100.00
11830;BME280;5972;42.134;24.718;2023-02-28T03:20:57;100364.28;;;10.17;100.00
11830;BME280;5972;42.134;24.718;2023-02-28T03:23:35;100344.06;;;10.06;100.00
11830;BME280;5972;42.134;24.718;2023-02-28T03:26:09;100356.16;;;9.99;100.00
11830;BME280;5972;42.134;24.718;2023-02-28T03:28:47;100360.59;;;10.04;100.00
11830;BME280;5972;42.134;24.718;2023-02-28T03:31:20;100370.78;;;9.98;100.00
11830;BME280;5972;42.134;24.718;2023-02-28T03:33:51;100363.81;;;9.89;100.00
11830;BME280;5972;42.134;24.718;2023-02-28T03:36:26;100359.50;;;9.88;100.00
11830;BME280;5972;42.134;24.718;2023-02-28T03:38:58;100299.88;;;9.33;100.00
11830;BME280;5972;42.134;24.718;2023-02-28T03:41:31;100352.03;;;9.68;100.00
11830;BME280;5972;42.134;24.718;2023-02-28T03:44:11;100371.28;;;9.75;100.00
11830;BME280;5972;42.134;24.718;2023-02-28T03:46:44;100376.69;;;9.75;100.00
11830;BME280;5972;42.134;24.718;2023-02-28T03:49:17;100374.75;;;9.75;100.00
11830;BME280;5972;42.134;24.718;2023-02-28T03:51:48;100371.75;;;9.68;100.00
11830;BME280;5972;42.134;24.718;2023-02-28T03:54:19;100390.19;;;9.75;100.00
11830;BME280;5972;42.134;24.718;2023-02-28T03:56:50;100389.72;;;9.73;100.00
11830;BME280;5972;42.134;24.718;2023-02-28T03:59:23;100393.22;;;9.73;100.00
11830;BME280;5972;42.134;24.718;2023-02-28T04:01:53;100392.41;;;9.73;100.00
11830;BME280;5972;42.134;24.718;2023-02-28T04:04:21;100400.38;;;9.78;100.00
11830;BME280;5972;42.134;24.718;2023-02-28T04:06:51;100399.72;;;9.72;100.00
11830;BME280;5972;42.134;24.718;2023-02-28T04:09:18;100395.72;;;9.52;100.00
11830;BME280;5972;42.134;24.718;2023-02-28T04:11:48;100418.16;;;9.62;100.00
11830;BME280;5972;42.134;24.718;2023-02-28T04:14:17;100424.00;;;9.46;100.00
11830;BME280;5972;42.134;24.718;2023-02-28T04:16:45;100432.75;;;9.52;100.00
11830;BME280;5972;42.134;24.718;2023-02-28T04:19:13;100429.56;;;9.58;100.00
11830;BME280;5972;42.134;24.718;2023-02-28T04:21:41;100425.75;;;9.59;100.00
11830;BME280;5972;42.134;24.718;2023-02-28T04:24:12;100429.06;;;9.48;100.00
11830;BME280;5972;42.134;24.718;2023-02-28T04:26:42;100435.72;;;9.42;100.00
11830;BME280;5972;42.134;24.718;2023-02-28T04:29:09;100415.34;;;9.27;100.00
11830;BME280;5972;42.134;24.718;2023-02-28T04:31:37;100427.47;;;9.38;100.00
11830;BME280;5972;42.134;24.718;2023-02-28T04:34:04;100433.16;;;9.37;100.00
11830;BME280;5972;42.134;24.718;2023-02-28T04:36:31;100423.59;;;9.31;100.00
11830;BME280;5972;42.134;24.718;2023-02-28T04:38:58;100418.69;;;9.33;100.00
11830;BME280;5972;42.134;24.718;2023-02-28T04:41:26;100419.84;;;9.40;100.00
11830;BME280;5972;42.134;24.718;2023-02-28T04:43:53;100419.69;;;9.45;100.00
11830;BME280;5972;42.134;24.718;2023-02-28T04:46:21;100426.06;;;9.49;100.00
11830;BME280;5972;42.134;24.718;2023-02-28T04:48:48;100425.25;;;9.49;100.00
11830;BME280;5972;42.134;24.718;2023-02-28T04:51:16;100430.00;;;9.43;100.00
11830;BME280;5972;42.134;24.718;2023-02-28T04:53:43;100408.56;;;9.38;100.00
11830;BME280;5972;42.134;24.718;2023-02-28T04:56:12;100419.06;;;9.48;100.00
11830;BME280;5972;42.134;24.718;2023-02-28T04:58:42;100425.91;;;9.46;100.00
11830;BME280;5972;42.134;24.718;2023-02-28T05:01:18;100438.91;;;9.44;100.00
11830;BME280;5972;42.134;24.718;2023-02-28T05:03:45;100448.13;;;9.43;100.00
11830;BME280;5972;42.134;24.718;2023-02-28T05:06:12;100451.31;;;9.45;100.00
11830;BME280;5972;42.134;24.718;2023-02-28T05:08:40;100454.47;;;9.38;100.00
11830;BME280;5972;42.134;24.718;2023-02-28T05:11:13;100457.16;;;9.38;100.00
11830;BME280;5972;42.134;24.718;2023-02-28T05:13:42;100449.72;;;9.44;100.00
11830;BME280;5972;42.134;24.718;2023-02-28T05:16:09;100455.91;;;9.44;100.00
11830;BME280;5972;42.134;24.718;2023-02-28T05:18:36;100451.00;;;9.46;100.00
11830;BME280;5972;42.134;24.718;2023-02-28T05:21:03;100454.03;;;9.53;100.00
11830;BME280;5972;42.134;24.718;2023-02-28T05:23:31;100455.94;;;9.53;100.00
11830;BME280;5972;42.134;24.718;2023-02-28T05:25:58;100458.81;;;9.56;100.00
11830;BME280;5972;42.134;24.718;2023-02-28T05:28:25;100472.94;;;9.53;100.00
11830;BME280;5972;42.134;24.718;2023-02-28T05:30:53;100474.94;;;9.31;100.00
11830;BME280;5972;42.134;24.718;2023-02-28T05:33:20;100492.94;;;9.44;100.00
11830;BME280;5972;42.134;24.718;2023-02-28T05:35:47;100483.22;;;9.34;100.00
11830;BME280;5972;42.134;24.718;2023-02-28T05:38:14;100481.97;;;9.40;100.00
11830;BME280;5972;42.134;24.718;2023-02-28T05:40:41;100489.41;;;9.35;100.00
11830;BME280;5972;42.134;24.718;2023-02-28T05:43:10;100494.19;;;9.38;100.00
11830;BME280;5972;42.134;24.718;2023-02-28T05:45:37;100493.56;;;9.41;100.00
11830;BME280;5972;42.134;24.718;2023-02-28T05:48:06;100492.34;;;9.47;100.00
11830;BME280;5972;42.134;24.718;2023-02-28T05:50:33;100495.06;;;9.55;100.00
11830;BME280;5972;42.134;24.718;2023-02-28T05:52:59;100496.81;;;9.60;100.00
11830;BME280;5972;42.134;24.718;2023-02-28T05:55:26;100473.09;;;9.48;100.00
11830;BME280;5972;42.134;24.718;2023-02-28T05:57:53;100498.09;;;9.63;100.00
11830;BME280;5972;42.134;24.718;2023-02-28T06:00:21;100500.31;;;9.60;100.00
11830;BME280;5972;42.134;24.718;2023-02-28T06:02:48;100499.69;;;9.64;100.00
11830;BME280;5972;42.134;24.718;2023-02-28T06:05:17;100515.78;;;9.77;100.00
11830;BME280;5972;42.134;24.718;2023-02-28T06:07:44;100506.72;;;9.73;100.00
11830;BME280;5972;42.134;24.718;2023-02-28T06:10:12;100510.22;;;9.82;100.00
11830;BME280;5972;42.134;24.718;2023-02-28T06:12:39;100496.56;;;9.79;100.00
11830;BME280;5972;42.134;24.718;2023-02-28T06:15:07;100519.09;;;9.66;100.00
11830;BME280;5972;42.134;24.718;2023-02-28T06:17:37;100516.88;;;9.68;100.00
11830;BME280;5972;42.134;24.718;2023-02-28T06:20:05;100510.81;;;9.71;100.00
11830;BME280;5972;42.134;24.718;2023-02-28T06:22:34;100524.06;;;9.81;100.00
11830;BME280;5972;42.134;24.718;2023-02-28T06:25:02;100508.03;;;9.84;100.00
11830;BME280;5972;42.134;24.718;2023-02-28T06:27:29;100518.03;;;9.84;100.00
11830;BME280;5972;42.134;24.718;2023-02-28T06:29:56;100518.28;;;9.65;100.00
11830;BME280;5972;42.134;24.718;2023-02-28T06:32:24;100523.25;;;9.72;100.00
11830;BME280;5972;42.134;24.718;2023-02-28T06:34:51;100523.53;;;9.70;100.00
11830;BME280;5972;42.134;24.718;2023-02-28T06:37:19;100528.47;;;9.68;100.00
11830;BME280;5972;42.134;24.718;2023-02-28T06:39:47;100524.03;;;9.64;100.00
11830;BME280;5972;42.134;24.718;2023-02-28T06:42:14;100523.53;;;9.70;100.00
11830;BME280;5972;42.134;24.718;2023-02-28T06:44:41;100523.88;;;9.69;100.00
11830;BME280;5972;42.134;24.718;2023-02-28T06:47:09;100517.22;;;9.75;100.00
11830;BME280;5972;42.134;24.718;2023-02-28T06:49:36;100525.03;;;9.85;100.00
11830;BME280;5972;42.134;24.718;2023-02-28T06:52:04;100514.69;;;9.87;100.00
11830;BME280;5972;42.134;24.718;2023-02-28T06:54:31;100533.16;;;9.85;100.00
11830;BME280;5972;42.134;24.718;2023-02-28T06:57:00;100530.59;;;9.88;100.00
11830;BME280;5972;42.134;24.718;2023-02-28T06:59:27;100539.84;;;9.96;100.00
11830;BME280;5972;42.134;24.718;2023-02-28T07:01:54;100536.16;;;9.92;100.00
11830;BME280;5972;42.134;24.718;2023-02-28T07:04:21;100518.31;;;9.74;100.00
11830;BME280;5972;42.134;24.718;2023-02-28T07:06:48;100536.59;;;9.77;100.00
11830;BME280;5972;42.134;24.718;2023-02-28T07:09:16;100542.53;;;9.87;100.00
11830;BME280;5972;42.134;24.718;2023-02-28T07:11:44;100537.47;;;9.94;100.00
11830;BME280;5972;42.134;24.718;2023-02-28T07:14:13;100534.50;;;10.13;100.00
11830;BME280;5972;42.134;24.718;2023-02-28T07:16:39;100537.38;;;10.25;100.00
11830;BME280;5972;42.134;24.718;2023-02-28T07:19:06;100535.00;;;10.32;100.00
11830;BME280;5972;42.134;24.718;2023-02-28T07:21:33;100541.84;;;10.21;100.00
11830;BME280;5972;42.134;24.718;2023-02-28T07:24:00;100508.03;;;9.93;100.00
11830;BME280;5972;42.134;24.718;2023-02-28T07:26:27;100552.50;;;10.18;100.00
11830;BME280;5972;42.134;24.718;2023-02-28T07:28:54;100547.88;;;10.18;100.00
11830;BME280;5972;42.134;24.718;2023-02-28T07:31:22;100559.59;;;9.96;100.00
11830;BME280;5972;42.134;24.718;2023-02-28T07:33:49;100556.88;;;9.96;100.00
11830;BME280;5972;42.134;24.718;2023-02-28T07:36:16;100539.03;;;9.87;100.00
11830;BME280;5972;42.134;24.718;2023-02-28T07:38:46;100557.94;;;9.87;100.00
11830;BME280;5972;42.134;24.718;2023-02-28T07:41:15;100561.78;;;9.86;100.00
11830;BME280;5972;42.134;24.718;2023-02-28T07:43:42;100557.63;;;9.80;100.00
11830;BME280;5972;42.134;24.718;2023-02-28T07:46:11;100561.22;;;9.75;100.00
11830;BME280;5972;42.134;24.718;2023-02-28T07:48:42;100563.34;;;9.87;100.00
11830;BME280;5972;42.134;24.718;2023-02-28T07:51:09;100554.59;;;9.81;100.00
11830;BME280;5972;42.134;24.718;2023-02-28T07:53:36;100562.38;;;9.83;100.00
11830;BME280;5972;42.134;24.718;2023-02-28T07:56:04;100563.16;;;9.75;100.00
11830;BME280;5972;42.134;24.718;2023-02-28T07:58:31;100564.28;;;9.74;100.00
11830;BME280;5972;42.134;24.718;2023-02-28T08:01:05;100562.69;;;9.73;100.00
11830;BME280;5972;42.134;24.718;2023-02-28T08:03:33;100569.97;;;9.64;100.00
11830;BME280;5972;42.134;24.718;2023-02-28T08:06:02;100561.38;;;9.70;100.00
11830;BME280;5972;42.134;24.718;2023-02-28T08:08:29;100570.63;;;9.78;100.00
11830;BME280;5972;42.134;24.718;2023-02-28T08:10:58;100572.91;;;9.84;100.00
11830;BME280;5972;42.134;24.718;2023-02-28T08:13:26;100575.91;;;9.83;100.00
11830;BME280;5972;42.134;24.718;2023-02-28T08:15:53;100578.25;;;9.76;100.00
11830;BME280;5972;42.134;24.718;2023-02-28T08:18:21;100582.69;;;9.72;100.00
11830;BME280;5972;42.134;24.718;2023-02-28T08:20:48;100574.44;;;9.77;100.00
11830;BME280;5972;42.134;24.718;2023-02-28T08:23:17;100575.41;;;9.81;100.00
11830;BME280;5972;42.134;24.718;2023-02-28T08:25:44;100559.81;;;9.69;100.00
11830;BME280;5972;42.134;24.718;2023-02-28T08:28:11;100583.72;;;9.93;100.00
11830;BME280;5972;42.134;24.718;2023-02-28T08:30:38;100558.94;;;9.91;100.00
11830;BME280;5972;42.134;24.718;2023-02-28T08:33:06;100556.88;;;9.96;100.00
11830;BME280;5972;42.134;24.718;2023-02-28T08:35:35;100552.28;;;9.97;100.00
11830;BME280;5972;42.134;24.718;2023-02-28T08:38:02;100566.44;;;10.11;100.00
11830;BME280;5972;42.134;24.718;2023-02-28T08:40:30;100573.34;;;10.17;100.00
11830;BME280;5972;42.134;24.718;2023-02-28T08:42:57;100579.31;;;10.14;100.00
11830;BME280;5972;42.134;24.718;2023-02-28T08:45:25;100564.91;;;10.27;100.00
11830;BME280;5972;42.134;24.718;2023-02-28T08:47:53;100571.91;;;10.28;100.00
11830;BME280;5972;42.134;24.718;2023-02-28T08:50:20;100579.25;;;10.45;100.00
11830;BME280;5972;42.134;24.718;2023-02-28T08:52:47;100583.09;;;10.44;100.00
11830;BME280;5972;42.134;24.718;2023-02-28T08:55:14;100576.72;;;10.40;100.00
11830;BME280;5972;42.134;24.718;2023-02-28T08:57:43;100583.09;;;10.35;100.00
11830;BME280;5972;42.134;24.718;2023-02-28T09:00:11;100586.28;;;10.46;100.00
11830;BME280;5972;42.134;24.718;2023-02-28T09:02:39;100580.56;;;10.56;100.00
11830;BME280;5972;42.134;24.718;2023-02-28T09:05:08;100581.31;;;10.48;100.00
11830;BME280;5972;42.134;24.718;2023-02-28T09:07:35;100565.41;;;10.38;100.00
11830;BME280;5972;42.134;24.718;2023-02-28T09:10:02;100543.41;;;10.14;100.00
11830;BME280;5972;42.134;24.718;2023-02-28T09:12:33;100575.13;;;10.30;100.00
11830;BME280;5972;42.134;24.718;2023-02-28T09:15:03;100572.72;;;10.29;100.00
11830;BME280;5972;42.134;24.718;2023-02-28T09:17:30;100575.91;;;10.39;100.00
11830;BME280;5972;42.134;24.718;2023-02-28T09:19:57;100577.97;;;10.42;100.00
11830;BME280;5972;42.134;24.718;2023-02-28T09:22:24;100571.47;;;10.43;100.00
11830;BME280;5972;42.134;24.718;2023-02-28T09:24:51;100573.06;;;10.45;100.00
11830;BME280;5972;42.134;24.718;2023-02-28T09:27:18;100573.53;;;10.38;100.00
11830;BME280;5972;42.134;24.718;2023-02-28T09:29:45;100552.34;;;10.23;100.00
11830;BME280;5972;42.134;24.718;2023-02-28T09:32:14;100562.69;;;10.29;100.00
11830;BME280;5972;42.134;24.718;2023-02-28T09:34:41;100552.19;;;10.28;100.00
11830;BME280;5972;42.134;24.718;2023-02-28T09:37:08;100566.38;;;10.42;100.00
11830;BME280;5972;42.134;24.718;2023-02-28T09:39:34;100555.88;;;10.40;100.00
11830;BME280;5972;42.134;24.718;2023-02-28T09:42:02;100566.22;;;10.38;100.00
11830;BME280;5972;42.134;24.718;2023-02-28T09:44:33;100549.63;;;10.23;100.00
11830;BME280;5972;42.134;24.718;2023-02-28T09:47:08;100566.84;;;10.35;100.00
11830;BME280;5972;42.134;24.718;2023-02-28T09:49:40;100563.66;;;10.25;100.00
11830;BME280;5972;42.134;24.718;2023-02-28T09:52:11;100563.31;;;10.18;100.00
11830;BME280;5972;42.134;24.718;2023-02-28T09:54:38;100566.75;;;10.10;100.00
11830;BME280;5972;42.134;24.718;2023-02-28T09:57:07;100552.13;;;10.11;100.00
11830;BME280;5972;42.134;24.718;2023-02-28T09:59:57;100553.03;;;9.97;100.00
11830;BME280;5972;42.134;24.718;2023-02-28T10:02:45;100546.38;;;9.95;100.00
11830;BME280;5972;42.134;24.718;2023-02-28T10:05:17;100529.03;;;9.96;100.00
11830;BME280;5972;42.134;24.718;2023-02-28T10:07:53;100526.66;;;10.03;100.00
11830;BME280;5972;42.134;24.718;2023-02-28T10:10:28;100531.28;;;10.11;100.00
11830;BME280;5972;42.134;24.718;2023-02-28T10:13:00;100533.19;;;10.11;100.00
11830;BME280;5972;42.134;24.718;2023-02-28T10:15:31;100540.16;;;10.03;100.00
11830;BME280;5972;42.134;24.718;2023-02-28T10:18:01;100532.84;;;9.95;100.00
11830;BME280;5972;42.134;24.718;2023-02-28T10:20:33;100523.63;;;9.96;100.00
11830;BME280;5972;42.134;24.718;2023-02-28T10:23:05;100525.88;;;10.02;100.00
11830;BME280;5972;42.134;24.718;2023-02-28T10:25:37;100520.16;;;10.13;100.00
11830;BME280;5972;42.134;24.718;2023-02-28T10:28:15;100521.28;;;10.12;100.00
11830;BME280;5972;42.134;24.718;2023-02-28T10:30:46;100523.84;;;10.17;100.00
11830;BME280;5972;42.134;24.718;2023-02-28T10:33:21;100522.53;;;10.14;100.00
11830;BME280;5972;42.134;24.718;2023-02-28T10:35:51;100485.75;;;9.87;100.00
11830;BME280;5972;42.134;24.718;2023-02-28T10:38:20;100514.06;;;9.98;100.00
11830;BME280;5972;42.134;24.718;2023-02-28T10:40:47;100517.13;;;9.97;100.00
11830;BME280;5972;42.134;24.718;2023-02-28T10:43:23;100517.59;;;9.99;100.00
11830;BME280;5972;42.134;24.718;2023-02-28T10:46:02;100514.41;;;10.06;100.00
11830;BME280;5972;42.134;24.718;2023-02-28T10:48:34;100521.59;;;10.10;100.00
11830;BME280;5972;42.134;24.718;2023-02-28T10:51:05;100515.88;;;10.12;100.00
11830;BME280;5972;42.134;24.718;2023-02-28T10:53:37;100518.72;;;10.15;100.00
11830;BME280;5972;42.134;24.718;2023-02-28T10:56:15;100506.16;;;10.02;100.00
11830;BME280;5972;42.134;24.718;2023-02-28T10:58:50;100515.38;;;10.10;100.00
11830;BME280;5972;42.134;24.718;2023-02-28T11:01:19;100502.97;;;10.00;100.00
11830;BME280;5972;42.134;24.718;2023-02-28T11:03:47;100509.66;;;10.02;100.00
11830;BME280;5972;42.134;24.718;2023-02-28T11:06:20;100502.81;;;9.96;100.00
11830;BME280;5972;42.134;24.718;2023-02-28T11:08:51;100499.16;;;10.01;100.00
11830;BME280;5972;42.134;24.718;2023-02-28T11:11:20;100494.66;;;9.88;100.00
11830;BME280;5972;42.134;24.718;2023-02-28T11:13:51;100499.13;;;9.92;100.00
11830;BME280;5972;42.134;24.718;2023-02-28T11:16:19;100488.78;;;10.03;100.00
11830;BME280;5972;42.134;24.718;2023-02-28T11:18:49;100487.38;;;10.14;100.00
11830;BME280;5972;42.134;24.718;2023-02-28T11:21:21;100494.53;;;10.01;100.00
11830;BME280;5972;42.134;24.718;2023-02-28T11:23:51;100493.72;;;9.92;100.00
11830;BME280;5972;42.134;24.718;2023-02-28T11:26:40;100487.00;;;9.73;100.00
11830;BME280;5972;42.134;24.718;2023-02-28T11:29:17;100487.28;;;9.63;100.00
11830;BME280;5972;42.134;24.718;2023-02-28T11:34:43;100499.66;;;9.55;100.00
11830;BME280;5972;42.134;24.718;2023-02-28T11:37:14;100499.97;;;9.53;100.00
11830;BME280;5972;42.134;24.718;2023-02-28T11:39:42;100464.47;;;9.29;100.00
11830;BME280;5972;42.134;24.718;2023-02-28T11:42:31;100489.00;;;9.50;100.00
11830;BME280;5972;42.134;24.718;2023-02-28T11:45:13;100486.09;;;9.38;100.00
11830;BME280;5972;42.134;24.718;2023-02-28T11:47:48;100475.72;;;9.31;100.00
11830;BME280;5972;42.134;24.718;2023-02-28T11:50:31;100497.84;;;9.42;100.00
11830;BME280;5972;42.134;24.718;2023-02-28T11:53:12;100496.88;;;9.29;100.00
11830;BME280;5972;42.134;24.718;2023-02-28T11:55:45;100497.31;;;9.31;100.00
11830;BME280;5972;42.134;24.718;2023-02-28T11:58:21;100461.09;;;9.24;100.00
11830;BME280;5972;42.134;24.718;2023-02-28T12:01:02;100487.38;;;9.40;100.00
11830;BME280;5972;42.134;24.718;2023-02-28T12:03:43;100492.59;;;9.37;100.00
11830;BME280;5972;42.134;24.718;2023-02-28T12:06:18;100489.09;;;9.36;100.00
11830;BME280;5972;42.134;24.718;2023-02-28T12:08:55;100480.53;;;9.34;100.00
11830;BME280;5972;42.134;24.718;2023-02-28T12:11:36;100485.63;;;9.36;100.00
11830;BME280;5972;42.134;24.718;2023-02-28T12:14:27;100487.31;;;9.32;100.00
11830;BME280;5972;42.134;24.718;2023-02-28T12:17:04;100488.72;;;9.21;100.00
11830;BME280;5972;42.134;24.718;2023-02-28T12:19:41;100486.19;;;9.24;100.00
11830;BME280;5972;42.134;24.718;2023-02-28T12:22:28;100493.38;;;9.37;100.00
11830;BME280;5972;42.134;24.718;2023-02-28T12:25:15;100488.25;;;9.27;100.00
11830;BME280;5972;42.134;24.718;2023-02-28T12:27:48;100486.06;;;9.29;100.00
11830;BME280;5972;42.134;24.718;2023-02-28T12:30:18;100488.56;;;9.26;100.00
11830;BME280;5972;42.134;24.718;2023-02-28T12:32:48;100477.81;;;9.34;100.00
11830;BME280;5972;42.134;24.718;2023-02-28T12:35:19;100485.91;;;9.34;100.00
11830;BME280;5972;42.134;24.718;2023-02-28T12:37:51;100488.75;;;9.29;100.00
11830;BME280;5972;42.134;24.718;2023-02-28T12:40:23;100475.41;;;9.24;100.00
11830;BME280;5972;42.134;24.718;2023-02-28T12:42:54;100483.50;;;9.24;100.00
11830;BME280;5972;42.134;24.718;2023-02-28T12:45:24;100467.28;;;9.24;100.00
11830;BME280;5972;42.134;24.718;2023-02-28T12:47:57;100464.59;;;9.24;100.00
11830;BME280;5972;42.134;24.718;2023-02-28T12:50:27;100471.38;;;9.13;100.00
11830;BME280;5972;42.134;24.718;2023-02-28T12:53:02;100478.25;;;9.19;100.00
11830;BME280;5972;42.134;24.718;2023-02-28T12:55:38;100469.63;;;9.17;100.00
11830;BME280;5972;42.134;24.718;2023-02-28T12:58:14;100475.41;;;9.24;100.00
11830;BME280;5972;42.134;24.718;2023-02-28T13:01:03;100472.06;;;9.27;100.00
11830;BME280;5972;42.134;24.718;2023-02-28T13:03:52;100479.34;;;9.18;100.00
11830;BME280;5972;42.134;24.718;2023-02-28T13:07:06;100470.91;;;9.19;100.00
11830;BME280;5972;42.134;24.718;2023-02-28T13:09:37;100473.16;;;9.26;100.00
11830;BME280;5972;42.134;24.718;2023-02-28T13:12:14;100475.84;;;9.17;100.00
11830;BME280;5972;42.134;24.718;2023-02-28T13:14:42;100471.84;;;9.15;100.00